sensor_id;sensor_type;location;lat;lon;timestamp;P1;durP1;ratioP1;P2;durP2;ratioP2
11865;SDS011;5992;52.744;6.898;2023-04-25T00:00:20;11.60;;;2.60;;
11865;SDS011;5992;52.744;6.898;2023-04-25T00:03:45;10.50;;;2.60;;
11865;SDS011;5992;52.744;6.898;2023-04-25T00:06:47;8.35;;;2.65;;
11865;SDS011;5992;52.744;6.898;2023-04-25T00:10:12;12.00;;;2.13;;
11865;SDS011;5992;52.744;6.898;2023-04-25T00:13:24;9.17;;;2.10;;
11865;SDS011;5992;52.744;6.898;2023-04-25T00:16:48;8.53;;;1.87;;
11865;SDS011;5992;52.744;6.898;2023-04-25T00:20:00;8.83;;;2.50;;
11865;SDS011;5992;52.744;6.898;2023-04-25T00:23:24;9.40;;;2.30;;
11865;SDS011;5992;52.744;6.898;2023-04-25T00:26:37;9.15;;;2.10;;
11865;SDS011;5992;52.744;6.898;2023-04-25T00:30:04;8.60;;;2.53;;
11865;SDS011;5992;52.744;6.898;2023-04-25T00:33:06;7.43;;;1.97;;
11865;SDS011;5992;52.744;6.898;2023-04-25T00:36:31;6.43;;;2.23;;
11865;SDS011;5992;52.744;6.898;2023-04-25T00:39:55;7.25;;;2.05;;
11865;SDS011;5992;52.744;6.898;2023-04-25T00:43:20;6.90;;;2.03;;
11865;SDS011;5992;52.744;6.898;2023-04-25T00:46:33;7.97;;;1.90;;
11865;SDS011;5992;52.744;6.898;2023-04-25T00:49:57;5.40;;;2.47;;
11865;SDS011;5992;52.744;6.898;2023-04-25T00:52:58;6.10;;;1.90;;
11865;SDS011;5992;52.744;6.898;2023-04-25T00:56:22;5.10;;;1.90;;
11865;SDS011;5992;52.744;6.898;2023-04-25T00:59:47;4.55;;;1.95;;
11865;SDS011;5992;52.744;6.898;2023-04-25T01:03:12;3.60;;;1.70;;
11865;SDS011;5992;52.744;6.898;2023-04-25T01:06:24;4.30;;;2.10;;
11865;SDS011;5992;52.744;6.898;2023-04-25T01:09:48;5.75;;;2.60;;
11865;SDS011;5992;52.744;6.898;2023-04-25T01:13:01;5.37;;;1.90;;
11865;SDS011;5992;52.744;6.898;2023-04-25T01:16:27;12.43;;;2.40;;
11865;SDS011;5992;52.744;6.898;2023-04-25T01:19:40;7.27;;;1.93;;
11865;SDS011;5992;52.744;6.898;2023-04-25T01:22:54;4.95;;;2.00;;
11865;SDS011;5992;52.744;6.898;2023-04-25T01:26:19;7.97;;;2.60;;
11865;SDS011;5992;52.744;6.898;2023-04-25T01:29:44;7.30;;;2.05;;
11865;SDS011;5992;52.744;6.898;2023-04-25T01:32:59;10.50;;;2.30;;
11865;SDS011;5992;52.744;6.898;2023-04-25T01:36:23;5.73;;;1.77;;
11865;SDS011;5992;52.744;6.898;2023-04-25T01:39:49;12.37;;;1.93;;
11865;SDS011;5992;52.744;6.898;2023-04-25T01:43:14;5.00;;;2.30;;
11865;SDS011;5992;52.744;6.898;2023-04-25T01:46:38;6.63;;;2.10;;
11865;SDS011;5992;52.744;6.898;2023-04-25T01:50:03;5.97;;;1.87;;
11865;SDS011;5992;52.744;6.898;2023-04-25T01:53:27;3.90;;;1.50;;
11865;SDS011;5992;52.744;6.898;2023-04-25T01:56:52;6.60;;;2.10;;
11865;SDS011;5992;52.744;6.898;2023-04-25T02:00:17;5.50;;;1.80;;
11865;SDS011;5992;52.744;6.898;2023-04-25T02:03:43;9.80;;;2.10;;
11865;SDS011;5992;52.744;6.898;2023-04-25T02:07:07;7.30;;;2.07;;
11865;SDS011;5992;52.744;6.898;2023-04-25T02:10:20;4.67;;;1.50;;
11865;SDS011;5992;52.744;6.898;2023-04-25T02:13:34;5.53;;;1.70;;
11865;SDS011;5992;52.744;6.898;2023-04-25T02:16:59;6.03;;;1.80;;
11865;SDS011;5992;52.744;6.898;2023-04-25T02:20:12;8.20;;;2.23;;
11865;SDS011;5992;52.744;6.898;2023-04-25T02:23:25;12.00;;;1.90;;
11865;SDS011;5992;52.744;6.898;2023-04-25T02:26:26;6.27;;;1.83;;
11865;SDS011;5992;52.744;6.898;2023-04-25T02:29:55;8.20;;;2.30;;
11865;SDS011;5992;52.744;6.898;2023-04-25T04:16:50;8.67;;;2.17;;
11865;SDS011;5992;52.744;6.898;2023-04-25T04:20:04;5.57;;;1.40;;
11865;SDS011;5992;52.744;6.898;2023-04-25T04:23:28;6.70;;;1.63;;
11865;SDS011;5992;52.744;6.898;2023-04-25T04:26:41;9.05;;;1.70;;
11865;SDS011;5992;52.744;6.898;2023-04-25T04:29:57;6.97;;;2.00;;
11865;SDS011;5992;52.744;6.898;2023-04-25T04:33:21;7.37;;;1.57;;
11865;SDS011;5992;52.744;6.898;2023-04-25T04:36:45;6.23;;;2.00;;
11865;SDS011;5992;52.744;6.898;2023-04-25T04:39:58;3.53;;;1.47;;
11865;SDS011;5992;52.744;6.898;2023-04-25T04:43:10;7.77;;;1.70;;
11865;SDS011;5992;52.744;6.898;2023-04-25T04:46:26;4.13;;;1.87;;
11865;SDS011;5992;52.744;6.898;2023-04-25T04:49:51;2.73;;;0.90;;
11865;SDS011;5992;52.744;6.898;2023-04-25T04:53:09;6.40;;;1.47;;
11865;SDS011;5992;52.744;6.898;2023-04-25T04:56:23;4.97;;;1.70;;
11865;SDS011;5992;52.744;6.898;2023-04-25T04:59:36;5.07;;;1.80;;
11865;SDS011;5992;52.744;6.898;2023-04-25T05:02:53;5.00;;;1.50;;
11865;SDS011;5992;52.744;6.898;2023-04-25T05:06:20;4.15;;;1.80;;
11865;SDS011;5992;52.744;6.898;2023-04-25T05:09:34;5.67;;;1.03;;
11865;SDS011;5992;52.744;6.898;2023-04-25T05:12:59;5.93;;;1.37;;
11865;SDS011;5992;52.744;6.898;2023-04-25T05:16:13;4.17;;;1.20;;
11865;SDS011;5992;52.744;6.898;2023-04-25T05:19:28;3.07;;;1.33;;
11865;SDS011;5992;52.744;6.898;2023-04-25T05:22:52;4.10;;;1.13;;
11865;SDS011;5992;52.744;6.898;2023-04-25T05:26:05;4.75;;;1.95;;
11865;SDS011;5992;52.744;6.898;2023-04-25T05:29:20;5.63;;;1.60;;
11865;SDS011;5992;52.744;6.898;2023-04-25T05:32:32;2.47;;;1.30;;
11865;SDS011;5992;52.744;6.898;2023-04-25T05:35:48;4.67;;;1.70;;
11865;SDS011;5992;52.744;6.898;2023-04-25T05:39:13;2.73;;;1.43;;
11865;SDS011;5992;52.744;6.898;2023-04-25T05:42:27;3.43;;;1.30;;
11865;SDS011;5992;52.744;6.898;2023-04-25T05:45:51;3.20;;;1.20;;
11865;SDS011;5992;52.744;6.898;2023-04-25T05:49:04;6.00;;;1.10;;
11865;SDS011;5992;52.744;6.898;2023-04-25T05:52:18;3.37;;;1.30;;
11865;SDS011;5992;52.744;6.898;2023-04-25T05:55:44;3.07;;;1.13;;
11865;SDS011;5992;52.744;6.898;2023-04-25T05:58:57;3.73;;;1.67;;
11865;SDS011;5992;52.744;6.898;2023-04-25T06:02:10;1.15;;;1.05;;
11865;SDS011;5992;52.744;6.898;2023-04-25T06:05:23;2.95;;;1.50;;
11865;SDS011;5992;52.744;6.898;2023-04-25T06:08:48;2.03;;;0.93;;
11865;SDS011;5992;52.744;6.898;2023-04-25T06:12:12;3.10;;;1.37;;
11865;SDS011;5992;52.744;6.898;2023-04-25T06:15:25;6.45;;;1.20;;
11865;SDS011;5992;52.744;6.898;2023-04-25T06:18:49;3.53;;;1.07;;
11865;SDS011;5992;52.744;6.898;2023-04-25T06:21:53;5.25;;;1.70;;
11865;SDS011;5992;52.744;6.898;2023-04-25T06:25:07;10.25;;;2.05;;
11865;SDS011;5992;52.744;6.898;2023-04-25T06:28:32;4.20;;;1.60;;
11865;SDS011;5992;52.744;6.898;2023-04-25T06:31:45;3.75;;;1.60;;
11865;SDS011;5992;52.744;6.898;2023-04-25T06:34:58;5.13;;;1.57;;
11865;SDS011;5992;52.744;6.898;2023-04-25T06:38:11;5.87;;;1.60;;
11865;SDS011;5992;52.744;6.898;2023-04-25T06:41:13;1.90;;;1.27;;
11865;SDS011;5992;52.744;6.898;2023-04-25T06:44:44;9.93;;;1.50;;
11865;SDS011;5992;52.744;6.898;2023-04-25T06:47:45;4.90;;;1.70;;
11865;SDS011;5992;52.744;6.898;2023-04-25T06:50:58;3.15;;;1.70;;
11865;SDS011;5992;52.744;6.898;2023-04-25T06:54:11;2.40;;;1.30;;
11865;SDS011;5992;52.744;6.898;2023-04-25T06:57:26;5.57;;;1.30;;
11865;SDS011;5992;52.744;6.898;2023-04-25T07:00:52;8.80;;;2.10;;
11865;SDS011;5992;52.744;6.898;2023-04-25T07:04:05;5.07;;;2.07;;
11865;SDS011;5992;52.744;6.898;2023-04-25T07:07:18;6.85;;;1.60;;
11865;SDS011;5992;52.744;6.898;2023-04-25T07:10:34;6.60;;;2.00;;
11865;SDS011;5992;52.744;6.898;2023-04-25T07:13:48;3.10;;;1.40;;
11865;SDS011;5992;52.744;6.898;2023-04-25T07:17:14;2.87;;;1.27;;
11865;SDS011;5992;52.744;6.898;2023-04-25T07:20:27;3.13;;;1.10;;
11865;SDS011;5992;52.744;6.898;2023-04-25T07:23:40;5.33;;;1.27;;
11865;SDS011;5992;52.744;6.898;2023-04-25T07:26:53;7.20;;;2.05;;
11865;SDS011;5992;52.744;6.898;2023-04-25T07:30:09;5.10;;;1.75;;
11865;SDS011;5992;52.744;6.898;2023-04-25T07:33:21;4.13;;;1.60;;
11865;SDS011;5992;52.744;6.898;2023-04-25T07:36:34;4.80;;;1.60;;
11865;SDS011;5992;52.744;6.898;2023-04-25T07:39:47;4.37;;;1.60;;
11865;SDS011;5992;52.744;6.898;2023-04-25T07:43:01;3.30;;;1.30;;
11865;SDS011;5992;52.744;6.898;2023-04-25T07:46:15;4.75;;;1.35;;
11865;SDS011;5992;52.744;6.898;2023-04-25T07:49:40;3.40;;;1.25;;
11865;SDS011;5992;52.744;6.898;2023-04-25T07:52:53;2.70;;;1.35;;
11865;SDS011;5992;52.744;6.898;2023-04-25T07:56:06;3.85;;;1.40;;
11865;SDS011;5992;52.744;6.898;2023-04-25T07:59:19;4.67;;;1.33;;
11865;SDS011;5992;52.744;6.898;2023-04-25T08:02:45;4.70;;;1.75;;
11865;SDS011;5992;52.744;6.898;2023-04-25T08:06:10;3.95;;;1.40;;
11865;SDS011;5992;52.744;6.898;2023-04-25T08:09:23;4.35;;;1.35;;
11865;SDS011;5992;52.744;6.898;2023-04-25T08:12:37;4.35;;;1.45;;
11865;SDS011;5992;52.744;6.898;2023-04-25T08:15:49;4.10;;;1.30;;
11865;SDS011;5992;52.744;6.898;2023-04-25T08:19:03;3.57;;;1.50;;
11865;SDS011;5992;52.744;6.898;2023-04-25T08:22:31;2.77;;;1.20;;
11865;SDS011;5992;52.744;6.898;2023-04-25T08:25:56;4.20;;;1.35;;
11865;SDS011;5992;52.744;6.898;2023-04-25T08:29:09;3.67;;;1.67;;
11865;SDS011;5992;52.744;6.898;2023-04-25T08:32:23;4.90;;;0.90;;
11865;SDS011;5992;52.744;6.898;2023-04-25T08:35:38;4.13;;;0.87;;
11865;SDS011;5992;52.744;6.898;2023-04-25T08:39:04;4.20;;;1.40;;
11865;SDS011;5992;52.744;6.898;2023-04-25T08:42:29;7.20;;;1.75;;
11865;SDS011;5992;52.744;6.898;2023-04-25T08:45:53;5.65;;;1.30;;
11865;SDS011;5992;52.744;6.898;2023-04-25T08:49:17;7.67;;;1.37;;
11865;SDS011;5992;52.744;6.898;2023-04-25T08:52:44;3.00;;;0.97;;
11865;SDS011;5992;52.744;6.898;2023-04-25T08:56:08;4.35;;;1.10;;
11865;SDS011;5992;52.744;6.898;2023-04-25T08:59:33;2.00;;;1.30;;
11865;SDS011;5992;52.744;6.898;2023-04-25T09:02:57;2.35;;;1.30;;
11865;SDS011;5992;52.744;6.898;2023-04-25T09:06:21;3.07;;;0.93;;
11865;SDS011;5992;52.744;6.898;2023-04-25T09:09:48;3.60;;;1.20;;
11865;SDS011;5992;52.744;6.898;2023-04-25T09:13:13;3.65;;;1.20;;
11865;SDS011;5992;52.744;6.898;2023-04-25T09:16:37;2.75;;;0.90;;
11865;SDS011;5992;52.744;6.898;2023-04-25T09:20:06;3.20;;;1.13;;
11865;SDS011;5992;52.744;6.898;2023-04-25T09:23:30;2.10;;;0.90;;
11865;SDS011;5992;52.744;6.898;2023-04-25T09:26:57;3.10;;;1.20;;
11865;SDS011;5992;52.744;6.898;2023-04-25T09:30:28;2.87;;;1.37;;
11865;SDS011;5992;52.744;6.898;2023-04-25T09:33:58;3.47;;;1.27;;
11865;SDS011;5992;52.744;6.898;2023-04-25T09:37:23;3.50;;;1.20;;
11865;SDS011;5992;52.744;6.898;2023-04-25T09:40:47;2.55;;;0.95;;
11865;SDS011;5992;52.744;6.898;2023-04-25T09:44:14;2.75;;;0.90;;
11865;SDS011;5992;52.744;6.898;2023-04-25T09:47:39;2.60;;;1.03;;
11865;SDS011;5992;52.744;6.898;2023-04-25T09:51:05;2.27;;;1.30;;
11865;SDS011;5992;52.744;6.898;2023-04-25T09:54:32;4.10;;;1.20;;
11865;SDS011;5992;52.744;6.898;2023-04-25T09:57:45;2.55;;;1.05;;
11865;SDS011;5992;52.744;6.898;2023-04-25T10:01:12;1.45;;;0.85;;
11865;SDS011;5992;52.744;6.898;2023-04-25T10:04:50;1.37;;;1.03;;
11865;SDS011;5992;52.744;6.898;2023-04-25T10:08:13;1.30;;;0.73;;
11865;SDS011;5992;52.744;6.898;2023-04-25T10:11:37;2.37;;;1.20;;
11865;SDS011;5992;52.744;6.898;2023-04-25T10:14:49;1.80;;;0.80;;
11865;SDS011;5992;52.744;6.898;2023-04-25T10:18:18;2.37;;;0.77;;
11865;SDS011;5992;52.744;6.898;2023-04-25T10:21:30;2.10;;;0.95;;
11865;SDS011;5992;52.744;6.898;2023-04-25T10:24:55;2.33;;;0.77;;
11865;SDS011;5992;52.744;6.898;2023-04-25T10:28:08;1.63;;;0.87;;
11865;SDS011;5992;52.744;6.898;2023-04-25T10:31:21;1.85;;;0.80;;
11865;SDS011;5992;52.744;6.898;2023-04-25T10:34:38;2.13;;;1.07;;
11865;SDS011;5992;52.744;6.898;2023-04-25T10:38:05;3.25;;;1.20;;
11865;SDS011;5992;52.744;6.898;2023-04-25T10:41:17;3.70;;;0.65;;
11865;SDS011;5992;52.744;6.898;2023-04-25T10:44:41;1.97;;;1.00;;
11865;SDS011;5992;52.744;6.898;2023-04-25T10:47:53;2.87;;;1.10;;
11865;SDS011;5992;52.744;6.898;2023-04-25T10:51:24;3.27;;;0.90;;
11865;SDS011;5992;52.744;6.898;2023-04-25T10:54:39;2.00;;;0.80;;
11865;SDS011;5992;52.744;6.898;2023-04-25T10:58:10;2.20;;;0.80;;
11865;SDS011;5992;52.744;6.898;2023-04-25T11:01:24;2.10;;;1.15;;
11865;SDS011;5992;52.744;6.898;2023-04-25T11:04:46;2.07;;;0.80;;
11865;SDS011;5992;52.744;6.898;2023-04-25T11:07:59;2.03;;;0.93;;
11865;SDS011;5992;52.744;6.898;2023-04-25T11:11:23;2.00;;;1.17;;
11865;SDS011;5992;52.744;6.898;2023-04-25T11:14:24;1.97;;;1.40;;
11865;SDS011;5992;52.744;6.898;2023-04-25T11:17:48;2.53;;;1.20;;
11865;SDS011;5992;52.744;6.898;2023-04-25T11:21:00;1.00;;;0.60;;
11865;SDS011;5992;52.744;6.898;2023-04-25T11:24:26;3.83;;;1.23;;
11865;SDS011;5992;52.744;6.898;2023-04-25T11:27:39;1.90;;;1.10;;
11865;SDS011;5992;52.744;6.898;2023-04-25T11:31:03;1.93;;;1.00;;
11865;SDS011;5992;52.744;6.898;2023-04-25T11:34:16;1.47;;;0.87;;
11865;SDS011;5992;52.744;6.898;2023-04-25T11:37:42;2.27;;;1.13;;
11865;SDS011;5992;52.744;6.898;2023-04-25T11:40:55;2.70;;;0.97;;
11865;SDS011;5992;52.744;6.898;2023-04-25T11:44:21;3.53;;;1.17;;
11865;SDS011;5992;52.744;6.898;2023-04-25T11:47:33;2.90;;;1.27;;
11865;SDS011;5992;52.744;6.898;2023-04-25T11:50:57;0.60;;;0.60;;
11865;SDS011;5992;52.744;6.898;2023-04-25T11:54:09;3.77;;;1.20;;
11865;SDS011;5992;52.744;6.898;2023-04-25T11:57:34;3.90;;;0.85;;
11865;SDS011;5992;52.744;6.898;2023-04-25T12:00:47;4.65;;;1.30;;
11865;SDS011;5992;52.744;6.898;2023-04-25T12:04:11;1.10;;;0.90;;
11865;SDS011;5992;52.744;6.898;2023-04-25T12:07:27;1.50;;;0.60;;
11865;SDS011;5992;52.744;6.898;2023-04-25T12:10:51;1.37;;;1.00;;
11865;SDS011;5992;52.744;6.898;2023-04-25T12:14:04;3.63;;;1.30;;
11865;SDS011;5992;52.744;6.898;2023-04-25T12:17:28;2.10;;;0.80;;
11865;SDS011;5992;52.744;6.898;2023-04-25T12:20:41;1.77;;;0.77;;
11865;SDS011;5992;52.744;6.898;2023-04-25T12:24:10;1.83;;;0.57;;
11865;SDS011;5992;52.744;6.898;2023-04-25T12:27:22;2.30;;;0.90;;
11865;SDS011;5992;52.744;6.898;2023-04-25T12:30:57;4.20;;;1.50;;
11865;SDS011;5992;52.744;6.898;2023-04-25T12:34:09;1.63;;;0.97;;
11865;SDS011;5992;52.744;6.898;2023-04-25T12:37:26;7.17;;;1.03;;
11865;SDS011;5992;52.744;6.898;2023-04-25T12:40:39;3.10;;;1.40;;
11865;SDS011;5992;52.744;6.898;2023-04-25T12:43:52;3.30;;;1.50;;
11865;SDS011;5992;52.744;6.898;2023-04-25T12:46:54;1.60;;;0.90;;
11865;SDS011;5992;52.744;6.898;2023-04-25T12:50:19;2.73;;;0.80;;
11865;SDS011;5992;52.744;6.898;2023-04-25T12:53:21;3.87;;;1.30;;
11865;SDS011;5992;52.744;6.898;2023-04-25T12:56:45;2.40;;;1.20;;
11865;SDS011;5992;52.744;6.898;2023-04-25T12:59:57;3.57;;;0.80;;
11865;SDS011;5992;52.744;6.898;2023-04-25T13:03:11;2.80;;;0.65;;
11865;SDS011;5992;52.744;6.898;2023-04-25T13:06:25;2.10;;;0.87;;
11865;SDS011;5992;52.744;6.898;2023-04-25T13:09:49;4.57;;;1.07;;
11865;SDS011;5992;52.744;6.898;2023-04-25T13:12:50;1.03;;;0.93;;
11865;SDS011;5992;52.744;6.898;2023-04-25T13:16:04;2.50;;;1.03;;
11865;SDS011;5992;52.744;6.898;2023-04-25T13:19:17;2.70;;;1.30;;
11865;SDS011;5992;52.744;6.898;2023-04-25T13:22:45;3.40;;;1.23;;
11865;SDS011;5992;52.744;6.898;2023-04-25T13:25:46;1.30;;;0.97;;
11865;SDS011;5992;52.744;6.898;2023-04-25T13:29:10;4.23;;;1.00;;
11865;SDS011;5992;52.744;6.898;2023-04-25T13:32:10;3.07;;;1.10;;
11865;SDS011;5992;52.744;6.898;2023-04-25T13:35:24;2.07;;;1.10;;
11865;SDS011;5992;52.744;6.898;2023-04-25T13:38:38;2.43;;;0.93;;
11865;SDS011;5992;52.744;6.898;2023-04-25T13:41:52;2.47;;;1.17;;
11865;SDS011;5992;52.744;6.898;2023-04-25T13:44:53;3.07;;;1.60;;
11865;SDS011;5992;52.744;6.898;2023-04-25T13:48:06;1.77;;;1.30;;
11865;SDS011;5992;52.744;6.898;2023-04-25T13:51:19;3.80;;;0.80;;
11865;SDS011;5992;52.744;6.898;2023-04-25T13:54:44;1.50;;;1.00;;
11865;SDS011;5992;52.744;6.898;2023-04-25T13:57:44;3.63;;;0.90;;
11865;SDS011;5992;52.744;6.898;2023-04-25T14:00:57;1.20;;;1.10;;
11865;SDS011;5992;52.744;6.898;2023-04-25T14:04:10;2.57;;;1.27;;
11865;SDS011;5992;52.744;6.898;2023-04-25T14:07:13;2.70;;;1.20;;
11865;SDS011;5992;52.744;6.898;2023-04-25T14:10:37;3.23;;;1.33;;
11865;SDS011;5992;52.744;6.898;2023-04-25T14:13:50;1.93;;;0.90;;
11865;SDS011;5992;52.744;6.898;2023-04-25T14:17:03;2.60;;;1.20;;
11865;SDS011;5992;52.744;6.898;2023-04-25T14:20:15;4.43;;;1.10;;
11865;SDS011;5992;52.744;6.898;2023-04-25T14:23:30;4.07;;;1.27;;
11865;SDS011;5992;52.744;6.898;2023-04-25T14:26:43;1.63;;;1.00;;
11865;SDS011;5992;52.744;6.898;2023-04-25T14:30:08;2.57;;;1.30;;
11865;SDS011;5992;52.744;6.898;2023-04-25T14:33:09;3.60;;;0.93;;
11865;SDS011;5992;52.744;6.898;2023-04-25T14:36:22;2.67;;;0.80;;
11865;SDS011;5992;52.744;6.898;2023-04-25T14:39:36;1.20;;;0.85;;
11865;SDS011;5992;52.744;6.898;2023-04-25T14:43:00;4.00;;;1.47;;
11865;SDS011;5992;52.744;6.898;2023-04-25T14:46:01;3.87;;;1.10;;
11865;SDS011;5992;52.744;6.898;2023-04-25T14:49:25;3.70;;;1.03;;
11865;SDS011;5992;52.744;6.898;2023-04-25T14:52:26;2.23;;;0.83;;
11865;SDS011;5992;52.744;6.898;2023-04-25T14:55:52;0.93;;;0.60;;
11865;SDS011;5992;52.744;6.898;2023-04-25T14:59:04;3.90;;;0.90;;
11865;SDS011;5992;52.744;6.898;2023-04-25T15:02:17;1.67;;;1.10;;
11865;SDS011;5992;52.744;6.898;2023-04-25T15:05:29;1.50;;;1.15;;
11865;SDS011;5992;52.744;6.898;2023-04-25T15:08:42;3.90;;;0.90;;
11865;SDS011;5992;52.744;6.898;2023-04-25T15:11:45;1.50;;;0.93;;
11865;SDS011;5992;52.744;6.898;2023-04-25T15:15:12;2.87;;;1.40;;
11865;SDS011;5992;52.744;6.898;2023-04-25T15:18:24;4.30;;;1.55;;
11865;SDS011;5992;52.744;6.898;2023-04-25T15:21:37;3.50;;;1.10;;
11865;SDS011;5992;52.744;6.898;2023-04-25T15:24:37;3.70;;;0.90;;
11865;SDS011;5992;52.744;6.898;2023-04-25T15:27:52;1.53;;;0.90;;
11865;SDS011;5992;52.744;6.898;2023-04-25T15:31:04;2.40;;;1.07;;
11865;SDS011;5992;52.744;6.898;2023-04-25T15:34:17;1.37;;;1.00;;
11865;SDS011;5992;52.744;6.898;2023-04-25T15:37:19;1.05;;;0.90;;
11865;SDS011;5992;52.744;6.898;2023-04-25T15:40:35;1.95;;;1.25;;
11865;SDS011;5992;52.744;6.898;2023-04-25T15:43:51;0.80;;;0.80;;
11865;SDS011;5992;52.744;6.898;2023-04-25T15:47:16;4.13;;;1.50;;
11865;SDS011;5992;52.744;6.898;2023-04-25T15:50:18;4.83;;;1.67;;
11865;SDS011;5992;52.744;6.898;2023-04-25T15:53:42;2.43;;;1.47;;
11865;SDS011;5992;52.744;6.898;2023-04-25T15:56:54;2.00;;;1.20;;
11865;SDS011;5992;52.744;6.898;2023-04-25T16:00:10;3.00;;;1.40;;
11865;SDS011;5992;52.744;6.898;2023-04-25T16:03:35;1.45;;;1.00;;
11865;SDS011;5992;52.744;6.898;2023-04-25T16:06:36;6.00;;;1.30;;
11865;SDS011;5992;52.744;6.898;2023-04-25T16:09:49;2.23;;;1.07;;
11865;SDS011;5992;52.744;6.898;2023-04-25T16:12:51;0.87;;;0.80;;
11865;SDS011;5992;52.744;6.898;2023-04-25T16:16:16;3.87;;;1.43;;
11865;SDS011;5992;52.744;6.898;2023-04-25T16:19:28;2.37;;;1.03;;
11865;SDS011;5992;52.744;6.898;2023-04-25T16:22:42;1.90;;;1.00;;
11865;SDS011;5992;52.744;6.898;2023-04-25T16:25:54;1.93;;;1.10;;
11865;SDS011;5992;52.744;6.898;2023-04-25T16:29:18;3.90;;;1.60;;
11865;SDS011;5992;52.744;6.898;2023-04-25T16:32:20;4.50;;;1.00;;
11865;SDS011;5992;52.744;6.898;2023-04-25T16:35:45;5.17;;;1.47;;
11865;SDS011;5992;52.744;6.898;2023-04-25T16:38:46;1.45;;;0.80;;
11865;SDS011;5992;52.744;6.898;2023-04-25T16:41:59;5.17;;;1.07;;
11865;SDS011;5992;52.744;6.898;2023-04-25T16:45:12;3.83;;;1.03;;
11865;SDS011;5992;52.744;6.898;2023-04-25T16:48:37;2.45;;;1.30;;
11865;SDS011;5992;52.744;6.898;2023-04-25T16:51:50;5.03;;;1.30;;
11865;SDS011;5992;52.744;6.898;2023-04-25T16:55:14;3.33;;;0.97;;
11865;SDS011;5992;52.744;6.898;2023-04-25T16:58:14;3.50;;;0.80;;
11865;SDS011;5992;52.744;6.898;2023-04-25T17:01:38;2.45;;;1.05;;
11865;SDS011;5992;52.744;6.898;2023-04-25T17:04:51;4.80;;;1.50;;
11865;SDS011;5992;52.744;6.898;2023-04-25T17:08:16;3.03;;;1.20;;
11865;SDS011;5992;52.744;6.898;2023-04-25T17:11:17;3.20;;;1.20;;
11865;SDS011;5992;52.744;6.898;2023-04-25T17:14:33;2.90;;;0.90;;
11865;SDS011;5992;52.744;6.898;2023-04-25T17:17:45;2.15;;;1.20;;
11865;SDS011;5992;52.744;6.898;2023-04-25T17:20:58;1.70;;;0.97;;
11865;SDS011;5992;52.744;6.898;2023-04-25T17:24:11;4.83;;;1.40;;
11865;SDS011;5992;52.744;6.898;2023-04-25T17:27:24;1.85;;;0.95;;
11865;SDS011;5992;52.744;6.898;2023-04-25T17:30:26;3.10;;;1.13;;
11865;SDS011;5992;52.744;6.898;2023-04-25T17:33:38;3.95;;;1.35;;
11865;SDS011;5992;52.744;6.898;2023-04-25T17:36:41;2.57;;;1.20;;
11865;SDS011;5992;52.744;6.898;2023-04-25T17:40:06;1.75;;;0.70;;
11865;SDS011;5992;52.744;6.898;2023-04-25T17:43:09;5.45;;;1.50;;
11865;SDS011;5992;52.744;6.898;2023-04-25T17:46:22;4.10;;;1.55;;
11865;SDS011;5992;52.744;6.898;2023-04-25T17:49:23;1.50;;;0.95;;
11865;SDS011;5992;52.744;6.898;2023-04-25T17:52:37;1.00;;;1.00;;
11865;SDS011;5992;52.744;6.898;2023-04-25T17:55:50;1.10;;;0.90;;
11865;SDS011;5992;52.744;6.898;2023-04-25T17:59:14;1.50;;;1.15;;
11865;SDS011;5992;52.744;6.898;2023-04-25T18:02:27;1.90;;;0.70;;
11865;SDS011;5992;52.744;6.898;2023-04-25T18:05:40;1.13;;;1.00;;
11865;SDS011;5992;52.744;6.898;2023-04-25T18:08:53;4.40;;;1.00;;
11865;SDS011;5992;52.744;6.898;2023-04-25T18:12:18;5.35;;;1.70;;
11865;SDS011;5992;52.744;6.898;2023-04-25T18:15:30;7.20;;;1.15;;
11865;SDS011;5992;52.744;6.898;2023-04-25T18:18:46;2.65;;;0.70;;
11865;SDS011;5992;52.744;6.898;2023-04-25T18:21:58;2.60;;;0.90;;
11865;SDS011;5992;52.744;6.898;2023-04-25T18:25:12;2.13;;;0.93;;
11865;SDS011;5992;52.744;6.898;2023-04-25T18:28:25;5.10;;;1.20;;
11865;SDS011;5992;52.744;6.898;2023-04-25T18:31:38;3.60;;;1.25;;
11865;SDS011;5992;52.744;6.898;2023-04-25T18:34:51;3.75;;;1.00;;
11865;SDS011;5992;52.744;6.898;2023-04-25T18:38:04;7.35;;;1.20;;
11865;SDS011;5992;52.744;6.898;2023-04-25T18:41:06;1.73;;;0.90;;
11865;SDS011;5992;52.744;6.898;2023-04-25T18:44:31;3.55;;;0.90;;
11865;SDS011;5992;52.744;6.898;2023-04-25T18:47:32;2.83;;;1.00;;
11865;SDS011;5992;52.744;6.898;2023-04-25T18:50:45;4.25;;;1.10;;
11865;SDS011;5992;52.744;6.898;2023-04-25T18:53:46;1.70;;;0.75;;
11865;SDS011;5992;52.744;6.898;2023-04-25T18:57:11;6.40;;;1.50;;
11865;SDS011;5992;52.744;6.898;2023-04-25T19:00:23;6.60;;;1.30;;
11865;SDS011;5992;52.744;6.898;2023-04-25T19:03:36;2.23;;;0.93;;
11865;SDS011;5992;52.744;6.898;2023-04-25T19:06:49;2.70;;;1.15;;
11865;SDS011;5992;52.744;6.898;2023-04-25T19:10:02;2.45;;;1.10;;
11865;SDS011;5992;52.744;6.898;2023-04-25T19:13:15;2.10;;;1.10;;
11865;SDS011;5992;52.744;6.898;2023-04-25T19:16:41;3.60;;;1.30;;
11865;SDS011;5992;52.744;6.898;2023-04-25T19:19:53;3.75;;;1.20;;
11865;SDS011;5992;52.744;6.898;2023-04-25T19:23:06;3.87;;;1.10;;
11865;SDS011;5992;52.744;6.898;2023-04-25T19:26:18;6.40;;;1.40;;
11865;SDS011;5992;52.744;6.898;2023-04-25T19:29:43;1.83;;;1.10;;
11865;SDS011;5992;52.744;6.898;2023-04-25T19:32:56;2.50;;;1.63;;
11865;SDS011;5992;52.744;6.898;2023-04-25T19:36:09;2.65;;;1.10;;
11865;SDS011;5992;52.744;6.898;2023-04-25T19:39:10;5.15;;;1.40;;
11865;SDS011;5992;52.744;6.898;2023-04-25T19:42:24;3.67;;;0.97;;
11865;SDS011;5992;52.744;6.898;2023-04-25T19:45:27;2.95;;;1.60;;
11865;SDS011;5992;52.744;6.898;2023-04-25T19:48:51;3.53;;;1.40;;
11865;SDS011;5992;52.744;6.898;2023-04-25T19:51:52;8.10;;;1.85;;
11865;SDS011;5992;52.744;6.898;2023-04-25T19:55:08;5.63;;;1.20;;
11865;SDS011;5992;52.744;6.898;2023-04-25T19:58:20;3.73;;;1.17;;
11865;SDS011;5992;52.744;6.898;2023-04-25T20:01:35;2.57;;;1.30;;
11865;SDS011;5992;52.744;6.898;2023-04-25T20:04:59;2.30;;;1.10;;
11865;SDS011;5992;52.744;6.898;2023-04-25T20:08:00;2.50;;;1.23;;
11865;SDS011;5992;52.744;6.898;2023-04-25T20:11:13;1.00;;;0.85;;
11865;SDS011;5992;52.744;6.898;2023-04-25T20:14:14;4.33;;;1.43;;
11865;SDS011;5992;52.744;6.898;2023-04-25T20:17:29;2.50;;;1.00;;
11865;SDS011;5992;52.744;6.898;2023-04-25T20:20:40;2.15;;;0.85;;
11865;SDS011;5992;52.744;6.898;2023-04-25T20:23:53;2.73;;;1.10;;
11865;SDS011;5992;52.744;6.898;2023-04-25T20:26:54;1.03;;;0.90;;
11865;SDS011;5992;52.744;6.898;2023-04-25T20:30:08;3.03;;;1.00;;
11865;SDS011;5992;52.744;6.898;2023-04-25T20:33:11;2.60;;;1.20;;
11865;SDS011;5992;52.744;6.898;2023-04-25T20:36:35;1.75;;;0.80;;
11865;SDS011;5992;52.744;6.898;2023-04-25T20:39:35;2.37;;;1.07;;
11865;SDS011;5992;52.744;6.898;2023-04-25T20:42:48;1.67;;;1.27;;
11865;SDS011;5992;52.744;6.898;2023-04-25T20:46:00;2.77;;;1.33;;
11865;SDS011;5992;52.744;6.898;2023-04-25T20:49:16;1.43;;;0.80;;
11865;SDS011;5992;52.744;6.898;2023-04-25T20:52:27;2.90;;;1.20;;
11865;SDS011;5992;52.744;6.898;2023-04-25T20:55:52;4.95;;;1.85;;
11865;SDS011;5992;52.744;6.898;2023-04-25T20:58:53;2.27;;;1.00;;
11865;SDS011;5992;52.744;6.898;2023-04-25T21:02:20;1.63;;;0.90;;
11865;SDS011;5992;52.744;6.898;2023-04-25T21:05:23;4.07;;;1.40;;
11865;SDS011;5992;52.744;6.898;2023-04-25T21:08:46;1.80;;;1.20;;
11865;SDS011;5992;52.744;6.898;2023-04-25T21:11:47;1.77;;;0.80;;
11865;SDS011;5992;52.744;6.898;2023-04-25T21:14:59;2.03;;;1.10;;
11865;SDS011;5992;52.744;6.898;2023-04-25T21:18:00;1.10;;;1.00;;
11865;SDS011;5992;52.744;6.898;2023-04-25T21:21:15;3.03;;;1.03;;
11865;SDS011;5992;52.744;6.898;2023-04-25T21:24:26;3.93;;;1.40;;
11865;SDS011;5992;52.744;6.898;2023-04-25T21:27:40;1.67;;;1.07;;
11865;SDS011;5992;52.744;6.898;2023-04-25T21:30:41;3.87;;;1.17;;
11865;SDS011;5992;52.744;6.898;2023-04-25T21:34:05;1.70;;;1.07;;
11865;SDS011;5992;52.744;6.898;2023-04-25T21:37:08;3.90;;;1.35;;
11865;SDS011;5992;52.744;6.898;2023-04-25T21:40:33;3.97;;;1.43;;